Aérodrome :
LOGIN :

S'inscrire | Disclaimer

   EN    FR    IT 

 










Légende :    VFR   VFR Marginal   IFR   IFR Intensif   IFR Très Intensif
Visi : 
Plafond : 
>= 8 km
>= 3000ft
5 à 8 km
1000 à 3000 ft
1500m à 5 km
500 à 1000 ft
800 à 1500m
200 à 500 ft
< 800m
< 200 ft
Symboles :   Orages  Brouillard  Fortes neiges  Fortes précipitations  Vent > 20 kt
SIGMETs :   Divers  Orages  Givrage  Turbulence  Onde Orograph.  Cendres Volcan.







- Altitude de l'aérodrome : 154 ft
- Code IATA : SZZ


EPSC - Szczecin Goleniow

DERNIER METAR :
  • 241230Z 28004KT CAVOK 07/00 Q1024

METARs EXPIRÉS :
  • 241200Z 32006KT 280V340 CAVOK 07/00 Q1024
  • 241130Z 27005KT 230V330 9999 FEW020 07/01 Q1025
  • 241100Z 29008KT 9999 FEW020 SCT023 07/02 Q1025
  • 241030Z 31006KT 260V340 9999 FEW018 SCT021 07/02 Q1025
  • 241000Z 27005KT 230V300 9999 FEW015 SCT018 07/03 Q1026

TAF TAF EPSC
Valide du 24 à 12h jusqu'au 25 à 12h UTC


241130Z 2412/2512 28003KT 9999 SCT030
BECMG 2505/2507 22010KT 4000 RA BKN006 BKN012
TEMPO 2506/2509 2000 RASN BR BKN003
Pas de NOTAMs connus pour ce terrain.



MET'MAP, la Météo Aéronautique d'un coup d'oeil ! - Copyright ORBIFLY Décembre 2007 - Disclaimer

ORBIFLY MET'MAP TEAM :

Programmation & Développement : Alexandra Zaïnal
Conception & Développement : Baudouin d'Aumeries
Co-Programmation & Développement : Marc-Olivier Méhu
Soutien technique & logistique : Manuel Goepfert

Contact : metmap@orbifly.com




SOURCES & CREDITS :

   NOAA